Time;durP1;ratioP1;P1;durP2;ratioP2;P2;SDS_P1;SDS_P2;PMS_P1;PMS_P2;Temp;Humidity;BMP_temperature;BMP_pressure;BME280_temperature;BME280_humidity;BME280_pressure;Samples;Min_cycle;Max_cycle;Signal;HPM_P1;HPM_P2
2022/07/08 00:00:56;;;;;;;8.25;2.22;;;;;;;16.58;100.00;102963.41;5209000;28;20064;-71
2022/07/08 00:03:27;;;;;;;6.55;1.98;;;;;;;16.44;100.00;102951.25;5212999;28;20032;-71
2022/07/08 00:05:59;;;;;;;7.05;1.65;;;;;;;16.53;100.00;102960.28;5205855;28;20018;-71
2022/07/08 00:08:31;;;;;;;8.15;2.00;;;;;;;16.42;100.00;102961.09;5205332;28;20037;-72
2022/07/08 00:11:03;;;;;;;7.93;1.70;;;;;;;16.51;100.00;102960.38;5213165;28;20037;-72
2022/07/08 00:13:34;;;;;;;7.63;2.38;;;;;;;16.41;100.00;102961.22;5213982;28;20584;-72
2022/07/08 00:16:06;;;;;;;7.82;1.80;;;;;;;16.43;100.00;102951.34;5213122;28;20364;-72
2022/07/08 00:18:37;;;;;;;6.68;2.00;;;;;;;16.43;100.00;102969.88;5213559;28;20026;-73
2022/07/08 00:21:08;;;;;;;7.28;1.98;;;;;;;16.45;100.00;102962.66;5214983;28;20152;-72
2022/07/08 00:23:40;;;;;;;5.78;1.80;;;;;;;16.39;100.00;102957.84;5197687;28;20025;-72
2022/07/08 00:26:11;;;;;;;6.68;1.77;;;;;;;16.40;100.00;102954.22;5214054;28;20108;-72
2022/07/08 00:28:42;;;;;;;5.82;1.90;;;;;;;16.39;100.00;102953.38;5212716;28;20483;-72
2022/07/08 00:31:13;;;;;;;6.47;2.13;;;;;;;16.32;100.00;102959.25;5213436;28;20092;-72
2022/07/08 00:33:45;;;;;;;7.80;2.03;;;;;;;16.29;100.00;102960.34;5214967;28;20025;-72
2022/07/08 00:36:16;;;;;;;6.95;1.73;;;;;;;16.26;100.00;102953.47;5213640;28;20153;-70
2022/07/08 00:38:48;;;;;;;5.78;2.42;;;;;;;16.26;100.00;102964.06;5212876;28;20428;-71
2022/07/08 00:41:20;;;;;;;8.50;1.77;;;;;;;16.23;100.00;102968.72;5214373;28;20021;-71
2022/07/08 00:43:52;;;;;;;9.07;2.22;;;;;;;16.12;100.00;102951.03;5212393;28;20061;-71
2022/07/08 00:46:24;;;;;;;7.25;2.00;;;;;;;16.17;100.00;102961.25;5213860;28;20668;-71
2022/07/08 00:48:55;;;;;;;8.45;2.20;;;;;;;16.08;100.00;102961.94;5214382;28;20025;-71
2022/07/08 00:51:27;;;;;;;12.85;2.83;;;;;;;15.98;100.00;102967.06;5212928;28;20348;-71
2022/07/08 00:53:59;;;;;;;8.98;2.50;;;;;;;15.93;100.00;102963.94;5214730;28;20484;-71
2022/07/08 00:56:30;;;;;;;7.43;2.00;;;;;;;15.85;100.00;102966.31;5214630;28;20111;-71
2022/07/08 00:59:02;;;;;;;6.30;2.28;;;;;;;15.90;100.00;102969.44;5214105;28;20105;-72
2022/07/08 01:01:33;;;;;;;7.40;1.70;;;;;;;15.79;100.00;102964.94;5213387;28;20045;-71
2022/07/08 01:04:04;;;;;;;14.88;3.00;;;;;;;15.78;100.00;102963.25;5214852;28;20055;-71
2022/07/08 01:06:36;;;;;;;8.77;2.30;;;;;;;15.76;100.00;102963.38;5206581;28;20075;-71
2022/07/08 01:09:07;;;;;;;6.82;2.05;;;;;;;15.61;100.00;102974.16;5214397;28;20116;-71
2022/07/08 01:11:39;;;;;;;8.43;2.13;;;;;;;15.53;100.00;102967.66;5213505;28;20034;-71
2022/07/08 01:14:10;;;;;;;3.53;1.67;;;;;;;15.51;100.00;102968.72;5214409;28;20022;-71
2022/07/08 01:16:42;;;;;;;8.20;1.98;;;;;;;15.40;100.00;102963.38;5213143;28;20041;-71
2022/07/08 01:19:13;;;;;;;6.25;1.70;;;;;;;15.32;100.00;102955.97;5212679;28;20072;-71
2022/07/08 01:21:45;;;;;;;6.75;1.90;;;;;;;15.35;100.00;102960.22;5213992;28;20057;-71
2022/07/08 01:24:17;;;;;;;9.38;2.28;;;;;;;15.27;100.00;102958.13;5214585;28;20032;-71
2022/07/08 01:26:49;;;;;;;7.32;2.22;;;;;;;15.23;100.00;102957.50;5214031;28;20065;-71
2022/07/08 01:29:21;;;;;;;6.88;2.70;;;;;;;15.17;100.00;102963.19;5213146;28;20057;-71
2022/07/08 01:31:52;;;;;;;6.60;2.38;;;;;;;15.13;100.00;102968.81;5213674;28;20491;-71
2022/07/08 01:34:24;;;;;;;8.55;2.30;;;;;;;14.96;100.00;102962.06;5212404;28;20037;-71
2022/07/08 01:36:55;;;;;;;10.60;2.95;;;;;;;15.03;100.00;102968.59;5213753;28;20061;-71
2022/07/08 01:39:26;;;;;;;6.95;1.85;;;;;;;14.92;100.00;102963.22;5217879;28;20049;-71
2022/07/08 01:41:57;;;;;;;6.68;2.72;;;;;;;14.88;100.00;102967.03;5218835;28;20087;-71
2022/07/08 01:44:29;;;;;;;7.82;2.38;;;;;;;14.79;100.00;102964.06;5216791;28;20045;-71
2022/07/08 01:47:00;;;;;;;6.47;2.20;;;;;;;14.68;100.00;102960.50;5218669;28;20031;-71
2022/07/08 01:49:31;;;;;;;6.72;2.28;;;;;;;14.69;100.00;102952.47;5217333;28;20038;-71
2022/07/08 01:52:06;;;;;;;8.55;3.08;;;;;;;14.72;100.00;102962.81;5216456;28;20018;-71
2022/07/08 01:54:37;;;;;;;6.97;2.10;;;;;;;14.59;100.00;102957.53;5217904;28;20036;-71
2022/07/08 01:57:14;;;;;;;7.45;2.17;;;;;;;14.52;100.00;102950.97;5217598;28;20022;-71
2022/07/08 01:59:46;;;;;;;7.00;2.50;;;;;;;14.47;100.00;102953.06;5217160;28;20103;-71
2022/07/08 02:02:20;;;;;;;7.43;2.17;;;;;;;14.45;100.00;102954.94;5215955;28;20022;-71
2022/07/08 02:04:52;;;;;;;7.40;2.40;;;;;;;14.43;100.00;102951.56;5207338;28;20291;-71
2022/07/08 02:07:24;;;;;;;9.23;2.33;;;;;;;14.39;100.00;102946.59;5216834;28;20025;-71
2022/07/08 02:09:55;;;;;;;10.30;2.60;;;;;;;14.48;100.00;102949.47;5217749;28;20430;-71
2022/07/08 02:12:26;;;;;;;8.45;2.53;;;;;;;14.58;100.00;102961.13;5216594;28;20030;-71
2022/07/08 02:15:01;;;;;;;7.90;2.28;;;;;;;14.58;100.00;102962.91;5216738;28;20034;-71
2022/07/08 02:17:34;;;;;;;6.90;2.47;;;;;;;14.59;100.00;102962.81;5215464;28;20399;-71
2022/07/08 02:20:14;;;;;;;6.78;2.28;;;;;;;14.75;100.00;102962.59;5217516;28;20022;-71
2022/07/08 02:22:46;;;;;;;9.02;2.75;;;;;;;14.60;100.00;102966.28;5217555;28;20030;-71
2022/07/08 02:25:17;;;;;;;6.60;2.10;;;;;;;14.64;100.00;102964.28;5216702;28;20053;-71
2022/07/08 02:27:48;;;;;;;7.95;2.40;;;;;;;14.70;100.00;102966.47;5217224;28;20546;-71
2022/07/08 02:30:20;;;;;;;10.23;3.05;;;;;;;14.59;100.00;102959.34;5216819;28;20391;-71
2022/07/08 02:32:51;;;;;;;10.02;2.75;;;;;;;14.67;100.00;102964.94;5216309;28;20365;-71
2022/07/08 02:35:22;;;;;;;9.13;2.50;;;;;;;14.63;100.00;102955.53;5208841;28;20021;-71
2022/07/08 02:37:54;;;;;;;8.13;2.90;;;;;;;14.66;100.00;102957.09;5217079;28;20088;-71
2022/07/08 02:40:25;;;;;;;9.85;3.10;;;;;;;14.72;100.00;102964.59;5217460;28;20121;-71
2022/07/08 02:42:56;;;;;;;9.43;2.70;;;;;;;14.62;100.00;102964.38;5217122;28;20395;-71
2022/07/08 02:45:28;;;;;;;10.68;2.95;;;;;;;14.68;100.00;102965.75;5214886;28;20041;-71
2022/07/08 02:47:59;;;;;;;7.25;2.75;;;;;;;14.64;100.00;102954.56;5216916;28;20080;-71
2022/07/08 02:50:30;;;;;;;8.45;2.72;;;;;;;14.70;100.00;102969.13;5215843;28;20022;-71
2022/07/08 02:53:02;;;;;;;7.85;2.40;;;;;;;14.67;100.00;102964.09;5209780;28;20026;-71
2022/07/08 02:55:33;;;;;;;8.02;2.30;;;;;;;14.64;100.00;102954.56;5217167;28;20033;-71
2022/07/08 02:58:04;;;;;;;8.38;2.35;;;;;;;14.57;100.00;102958.56;5215487;28;20081;-71
2022/07/08 03:00:35;;;;;;;8.70;2.40;;;;;;;14.53;100.00;102960.56;5207908;28;20040;-71
2022/07/08 03:03:07;;;;;;;8.23;2.30;;;;;;;14.47;100.00;102955.72;5216026;28;20025;-71
2022/07/08 03:05:38;;;;;;;10.77;3.08;;;;;;;14.43;100.00;102966.53;5216632;28;20088;-71
2022/07/08 03:08:09;;;;;;;8.50;2.55;;;;;;;14.43;100.00;102977.09;5215141;28;20036;-71
2022/07/08 03:10:41;;;;;;;6.03;1.92;;;;;;;14.49;100.00;102969.66;5211112;28;20029;-71
2022/07/08 03:13:13;;;;;;;9.68;2.67;;;;;;;14.44;100.00;102971.72;5216017;28;20041;-71
2022/07/08 03:15:44;;;;;;;9.52;2.30;;;;;;;14.49;100.00;102972.28;5214198;28;20029;-71
2022/07/08 03:18:15;;;;;;;5.25;2.15;;;;;;;14.45;100.00;102975.22;5216314;28;20026;-72
2022/07/08 03:20:46;;;;;;;9.68;2.15;;;;;;;14.47;100.00;102978.56;5215712;28;20053;-72
2022/07/08 03:23:18;;;;;;;10.07;2.22;;;;;;;14.44;100.00;102966.47;5216507;28;20026;-72
2022/07/08 03:25:49;;;;;;;9.50;2.30;;;;;;;14.47;100.00;102973.28;5215003;28;20076;-72
2022/07/08 03:28:20;;;;;;;9.75;2.78;;;;;;;14.44;100.00;102970.88;5215591;28;20030;-72
2022/07/08 03:30:52;;;;;;;8.63;2.45;;;;;;;14.42;100.00;102967.50;5211084;28;20029;-72
2022/07/08 03:33:23;;;;;;;10.05;2.58;;;;;;;14.36;100.00;102960.84;5214753;28;20057;-72
2022/07/08 03:35:55;;;;;;;11.52;2.60;;;;;;;14.34;100.00;102973.28;5216876;28;20037;-72
2022/07/08 03:38:26;;;;;;;9.18;2.80;;;;;;;14.36;100.00;102977.53;5215999;28;20026;-72
2022/07/08 03:43:49;;;;;;;6.22;2.00;;;;;;;14.30;100.00;102979.72;5216213;28;20045;-72
2022/07/08 03:46:20;;;;;;;5.70;1.98;;;;;;;14.28;100.00;102979.84;5215255;28;20407;-72
2022/07/08 03:48:52;;;;;;;9.98;2.58;;;;;;;14.23;100.00;102975.78;5215866;28;20041;-72
2022/07/08 03:51:23;;;;;;;8.95;1.98;;;;;;;14.17;100.00;102977.06;5214976;28;20073;-72
2022/07/08 03:53:55;;;;;;;7.38;1.90;;;;;;;14.11;100.00;102962.47;5215492;28;20472;-72
2022/07/08 03:56:26;;;;;;;7.72;2.25;;;;;;;14.06;100.00;102971.66;5212831;28;20030;-72
2022/07/08 03:58:57;;;;;;;6.05;2.00;;;;;;;14.08;100.00;102982.91;5215712;28;20799;-72
2022/07/08 04:01:29;;;;;;;6.15;2.10;;;;;;;14.00;100.00;102978.16;5212008;28;20029;-72
2022/07/08 04:04:00;;;;;;;6.28;2.25;;;;;;;14.00;100.00;102972.03;5214513;28;20095;-72
2022/07/08 04:06:31;;;;;;;6.47;2.38;;;;;;;13.99;100.00;102973.84;5214043;28;20029;-72
2022/07/08 04:09:03;;;;;;;6.70;2.03;;;;;;;13.97;100.00;102975.72;5214676;28;20489;-72
2022/07/08 04:11:36;;;;;;;8.57;2.60;;;;;;;14.01;100.00;102965.81;5208234;28;20555;-72
2022/07/08 04:14:08;;;;;;;6.03;2.20;;;;;;;13.97;100.00;102970.44;5214391;28;20109;-72
2022/07/08 04:16:39;;;;;;;7.25;2.80;;;;;;;14.01;100.00;102979.00;5214721;28;20471;-72
2022/07/08 04:19:10;;;;;;;6.95;2.40;;;;;;;14.03;100.00;102979.75;5214110;28;20505;-72
2022/07/08 04:21:42;;;;;;;6.60;2.58;;;;;;;14.00;100.00;102979.94;5215611;28;20479;-72
2022/07/08 04:24:13;;;;;;;6.43;2.28;;;;;;;14.04;100.00;102979.63;5213909;28;20364;-72
2022/07/08 04:26:44;;;;;;;8.48;2.70;;;;;;;14.02;100.00;102978.91;5214863;28;20104;-72
2022/07/08 04:29:16;;;;;;;8.07;2.75;;;;;;;14.04;100.00;102971.72;5181798;28;20087;-72
2022/07/08 04:31:47;;;;;;;10.52;2.78;;;;;;;14.04;100.00;102970.88;5214499;28;20120;-72
2022/07/08 04:34:18;;;;;;;7.97;3.03;;;;;;;14.10;100.00;102981.88;5214105;28;20078;-72
2022/07/08 04:36:49;;;;;;;6.97;2.85;;;;;;;14.09;100.00;102984.59;5214288;28;20044;-72
2022/07/08 04:39:21;;;;;;;7.97;3.03;;;;;;;14.07;100.00;102989.97;5213653;28;20029;-72
2022/07/08 04:41:52;;;;;;;7.53;2.92;;;;;;;14.06;100.00;102996.22;5215696;28;20033;-72
2022/07/08 04:44:23;;;;;;;7.57;2.80;;;;;;;14.11;100.00;103003.81;5213835;28;20033;-72
2022/07/08 04:46:55;;;;;;;10.75;3.45;;;;;;;14.14;100.00;103002.78;5214102;28;20343;-70
2022/07/08 04:49:26;;;;;;;8.70;3.15;;;;;;;14.10;100.00;103005.59;5215213;28;20080;-70
2022/07/08 04:51:58;;;;;;;7.15;2.97;;;;;;;14.21;100.00;103004.06;5213923;28;20025;-70
2022/07/08 04:54:29;;;;;;;11.43;3.90;;;;;;;14.23;100.00;103003.00;5213239;28;20037;-70
2022/07/08 04:57:01;;;;;;;11.95;3.33;;;;;;;14.28;100.00;103010.59;5213759;28;20022;-73
2022/07/08 04:59:33;;;;;;;9.10;3.13;;;;;;;14.26;100.00;103008.06;5214229;28;20129;-73
2022/07/08 05:02:04;;;;;;;12.02;3.50;;;;;;;14.30;100.00;103006.91;5213098;28;20030;-70
2022/07/08 05:04:36;;;;;;;9.75;3.08;;;;;;;14.42;100.00;103018.44;5214522;28;20118;-71
2022/07/08 05:07:07;;;;;;;8.25;3.05;;;;;;;14.42;100.00;103014.97;5216988;28;20509;-71
2022/07/08 05:09:38;;;;;;;11.77;3.25;;;;;;;14.50;100.00;103012.69;5211936;28;20116;-71
2022/07/08 05:12:10;;;;;;;7.40;3.10;;;;;;;14.50;100.00;103012.69;5214616;28;20022;-71
2022/07/08 05:14:41;;;;;;;8.63;3.25;;;;;;;14.54;100.00;103012.38;5217177;28;20099;-71
2022/07/08 05:17:12;;;;;;;8.60;2.90;;;;;;;14.63;100.00;103015.38;5217585;28;20022;-71
2022/07/08 05:19:44;;;;;;;8.35;3.47;;;;;;;14.64;100.00;103017.88;5206698;28;20087;-71
2022/07/08 05:22:15;;;;;;;10.13;3.47;;;;;;;14.70;100.00;103024.53;5219038;28;20018;-71
2022/07/08 05:24:47;;;;;;;11.45;3.17;;;;;;;14.74;100.00;103024.25;5218766;28;20112;-71
2022/07/08 05:27:18;;;;;;;6.45;2.90;;;;;;;14.81;100.00;103027.28;5217594;28;20487;-71
2022/07/08 05:29:49;;;;;;;9.88;3.92;;;;;;;14.85;100.00;103028.81;5217572;28;20471;-71
2022/07/08 05:32:21;;;;;;;8.88;4.07;;;;;;;14.87;100.00;103040.09;5210971;28;20543;-71
2022/07/08 05:34:52;;;;;;;10.82;4.18;;;;;;;14.92;100.00;103037.13;5217101;28;20033;-71
2022/07/08 05:37:24;;;;;;;8.30;3.45;;;;;;;14.95;100.00;103040.41;5215963;28;20064;-71
2022/07/08 05:39:55;;;;;;;9.40;3.78;;;;;;;14.98;100.00;103037.56;5217059;28;20117;-71
2022/07/08 05:42:26;;;;;;;10.32;3.70;;;;;;;15.05;100.00;103041.47;5212672;28;20403;-71
2022/07/08 05:47:45;;;;;;;14.43;4.47;;;;;;;15.19;100.00;103051.09;5226201;28;20053;-69
2022/07/08 05:50:16;;;;;;;7.88;3.95;;;;;;;15.24;100.00;103048.13;5233054;28;20044;-69
2022/07/08 05:52:47;;;;;;;7.82;3.47;;;;;;;15.37;100.00;103056.00;5237555;28;20033;-69
2022/07/08 05:55:19;;;;;;;12.68;4.03;;;;;;;15.47;100.00;103054.44;5229525;28;20052;-69
2022/07/08 05:57:50;;;;;;;12.35;4.32;;;;;;;15.49;100.00;103057.78;5223626;28;20025;-69
2022/07/08 06:00:22;;;;;;;7.95;3.30;;;;;;;15.54;100.00;103064.44;5219116;28;20033;-69
2022/07/08 06:02:53;;;;;;;12.13;3.25;;;;;;;15.59;100.00;103058.84;5215012;28;20022;-68
2022/07/08 06:05:24;;;;;;;10.57;2.85;;;;;;;15.68;100.00;103054.72;5217209;28;20029;-68
2022/07/08 06:07:55;;;;;;;8.48;2.42;;;;;;;15.73;100.00;103053.44;5213691;28;20091;-68
2022/07/08 06:10:27;;;;;;;10.02;2.25;;;;;;;15.81;100.00;103066.97;5231236;28;20040;-68
2022/07/08 06:12:58;;;;;;;10.50;2.67;;;;;;;15.95;100.00;103060.69;5220682;28;20030;-69
2022/07/08 06:15:30;;;;;;;7.95;2.28;;;;;;;16.01;100.00;103062.88;5225527;28;20057;-71
2022/07/08 06:18:01;;;;;;;6.32;1.77;;;;;;;16.09;100.00;103062.31;5226431;28;20039;-70
2022/07/08 06:20:33;;;;;;;11.35;2.35;;;;;;;16.15;100.00;103067.16;5228383;28;20374;-69
2022/07/08 06:23:04;;;;;;;10.98;2.25;;;;;;;16.24;100.00;103069.13;5227298;28;20095;-69
2022/07/08 06:25:36;;;;;;;10.20;2.35;;;;;;;16.34;100.00;103068.47;5224417;28;20083;-68
2022/07/08 06:28:08;;;;;;;8.00;1.83;;;;;;;16.50;100.00;103071.63;5228754;28;20025;-69
2022/07/08 06:30:39;;;;;;;8.23;2.30;;;;;;;16.53;100.00;103066.13;5227191;28;20030;-68
2022/07/08 06:33:11;;;;;;;10.57;2.20;;;;;;;16.65;100.00;103070.50;5224898;28;20120;-69
2022/07/08 06:35:42;;;;;;;11.52;2.45;;;;;;;16.76;100.00;103073.19;5226646;28;20033;-68
2022/07/08 06:38:14;;;;;;;8.77;2.13;;;;;;;16.89;100.00;103069.63;5220851;28;20075;-69
2022/07/08 06:40:45;;;;;;;7.93;2.00;;;;;;;16.97;100.00;103069.88;5222020;28;20545;-69
2022/07/08 06:43:17;;;;;;;7.03;2.05;;;;;;;17.10;100.00;103067.13;5226339;28;20033;-69
2022/07/08 06:45:49;;;;;;;8.85;2.00;;;;;;;17.19;100.00;103066.41;5225994;28;20038;-68
2022/07/08 06:48:20;;;;;;;9.52;2.70;;;;;;;17.31;100.00;103075.22;5222271;28;20037;-69
2022/07/08 06:50:52;;;;;;;6.55;1.70;;;;;;;17.43;100.00;103074.25;5220050;28;20097;-69
2022/07/08 06:53:23;;;;;;;10.63;2.38;;;;;;;17.53;100.00;103072.56;5223445;28;20084;-69
2022/07/08 06:55:54;;;;;;;6.13;1.85;;;;;;;17.62;100.00;103077.16;5223489;28;20556;-69
2022/07/08 06:58:26;;;;;;;8.73;1.85;;;;;;;17.63;100.00;103072.69;5228411;28;20144;-68
2022/07/08 07:00:57;;;;;;;8.57;1.83;;;;;;;17.68;100.00;103063.38;5224832;28;20364;-70
2022/07/08 07:03:28;;;;;;;6.57;1.63;;;;;;;17.98;100.00;103073.38;5226286;28;20061;-69
2022/07/08 07:05:59;;;;;;;4.40;1.25;;;;;;;18.07;100.00;103070.94;5226003;28;20116;-69
2022/07/08 07:08:31;;;;;;;7.88;1.52;;;;;;;18.19;100.00;103076.09;5225869;28;20040;-69
2022/07/08 07:11:02;;;;;;;7.00;2.05;;;;;;;18.36;99.15;103084.47;5224054;28;20030;-69
2022/07/08 07:13:33;;;;;;;6.50;1.80;;;;;;;18.39;98.27;103073.59;5224074;28;20052;-69
2022/07/08 07:16:08;;;;;;;11.85;2.10;;;;;;;18.42;97.79;103073.34;5221447;28;20037;-69
2022/07/08 07:18:39;;;;;;;7.30;1.60;;;;;;;18.18;95.33;103081.50;5221860;28;20030;-69
2022/07/08 07:21:10;;;;;;;6.32;1.52;;;;;;;18.23;95.56;103087.31;5225101;28;20025;-70
2022/07/08 07:23:41;;;;;;;6.60;2.05;;;;;;;18.35;98.94;103080.13;5223070;28;20032;-68
2022/07/08 07:26:13;;;;;;;6.15;1.98;;;;;;;18.56;96.68;103074.84;5225110;28;20443;-70
2022/07/08 07:28:44;;;;;;;9.13;1.80;;;;;;;18.70;93.06;103078.06;5225621;28;20068;-69
2022/07/08 07:31:15;;;;;;;8.00;1.75;;;;;;;18.99;94.64;103080.06;5225583;28;20045;-69
2022/07/08 07:33:47;;;;;;;7.87;2.27;;;;;;;19.14;91.89;103084.06;5223094;28;20034;-69
2022/07/08 07:36:18;;;;;;;7.38;2.08;;;;;;;19.26;91.87;103076.03;5223552;28;20025;-68
2022/07/08 07:38:49;;;;;;;9.02;2.22;;;;;;;19.32;88.38;103071.03;5223908;28;20034;-69
2022/07/08 07:41:20;;;;;;;8.73;1.85;;;;;;;19.52;90.59;103076.41;5226277;28;20017;-69
2022/07/08 07:43:52;;;;;;;6.75;1.73;;;;;;;19.49;87.92;103066.03;5225853;28;20040;-70
2022/07/08 07:46:23;;;;;;;10.67;2.57;;;;;;;19.78;87.60;103077.63;5224157;28;20053;-69
2022/07/08 07:48:54;;;;;;;7.07;2.40;;;;;;;20.04;87.14;103067.34;5225730;28;20384;-68
2022/07/08 07:51:26;;;;;;;7.70;2.10;;;;;;;19.85;83.16;103073.47;5221954;28;20072;-69
2022/07/08 07:53:57;;;;;;;8.97;2.73;;;;;;;19.93;84.25;103073.63;5222257;28;20080;-69
2022/07/08 07:56:28;;;;;;;6.37;1.80;;;;;;;20.10;83.29;103072.09;5227705;28;20100;-69
2022/07/08 07:59:02;;;;;;;7.03;1.97;;;;;;;20.38;83.42;103069.56;5227921;28;20053;-69
2022/07/08 08:01:34;;;;;;;6.45;1.55;;;;;;;20.49;84.61;103065.91;5225296;28;20406;-69
2022/07/08 08:04:05;;;;;;;8.07;1.83;;;;;;;20.36;83.27;103064.38;5220292;28;20033;-69
2022/07/08 08:06:36;;;;;;;7.50;1.70;;;;;;;20.56;82.87;103067.06;5220587;28;20025;-69
2022/07/08 08:09:07;;;;;;;9.10;2.10;;;;;;;20.69;85.46;103069.47;5220470;28;20030;-70
2022/07/08 08:11:39;;;;;;;8.83;2.27;;;;;;;20.81;81.97;103079.78;5220281;28;20030;-69
2022/07/08 08:14:10;;;;;;;9.33;2.67;;;;;;;20.94;78.34;103078.63;5220101;28;20025;-69
2022/07/08 08:16:41;;;;;;;7.60;2.00;;;;;;;21.01;78.99;103083.25;5222071;28;20762;-70
2022/07/08 08:19:13;;;;;;;8.70;2.00;;;;;;;20.98;76.78;103085.38;5222419;28;20028;-69
2022/07/08 08:21:44;;;;;;;7.90;2.03;;;;;;;21.25;83.32;103081.91;5225118;28;20034;-70
2022/07/08 08:24:15;;;;;;;7.63;1.70;;;;;;;21.29;79.33;103081.50;5219909;28;20028;-70
2022/07/08 08:26:47;;;;;;;11.13;1.70;;;;;;;21.24;76.83;103081.06;5212734;28;20033;-69
2022/07/08 08:29:19;;;;;;;6.38;2.10;;;;;;;21.19;74.96;103079.84;5224337;28;20038;-68
2022/07/08 08:31:50;;;;;;;7.10;1.80;;;;;;;21.38;80.84;103085.13;5209734;28;20091;-69
2022/07/08 08:34:21;;;;;;;5.53;1.97;;;;;;;21.59;77.77;103075.06;5226580;28;20025;-69
2022/07/08 08:36:52;;;;;;;9.80;2.30;;;;;;;21.59;75.25;103080.41;5224958;28;20112;-69
2022/07/08 08:39:24;;;;;;;6.63;1.73;;;;;;;21.70;73.58;103082.00;5220381;28;20037;-69
2022/07/08 08:41:55;;;;;;;6.93;2.00;;;;;;;21.68;72.32;103083.16;5212791;28;20036;-69
2022/07/08 08:44:29;;;;;;;7.67;2.07;;;;;;;21.81;74.70;103083.63;5222743;28;20034;-69
2022/07/08 08:47:03;;;;;;;4.88;1.80;;;;;;;21.91;73.98;103091.59;5217246;28;20041;-69
2022/07/08 08:49:35;;;;;;;8.25;2.25;;;;;;;21.91;73.76;103078.25;5220322;28;20054;-69
2022/07/08 08:52:09;;;;;;;6.53;2.10;;;;;;;22.12;70.95;103070.78;5222783;28;20117;-69
2022/07/08 08:54:42;;;;;;;5.85;2.13;;;;;;;22.03;71.05;103061.84;5220555;28;20064;-68
2022/07/08 08:57:14;;;;;;;5.68;1.60;;;;;;;22.07;70.22;103065.06;5219241;28;20294;-69
2022/07/08 08:59:45;;;;;;;5.87;1.83;;;;;;;22.25;72.95;103062.44;5220516;28;20374;-69
2022/07/08 09:02:17;;;;;;;6.13;1.80;;;;;;;22.53;73.43;103063.16;5217569;28;20218;-69
2022/07/08 09:04:49;;;;;;;7.50;2.10;;;;;;;22.68;73.47;103052.75;5218392;28;20071;-68
2022/07/08 09:07:20;;;;;;;9.50;2.13;;;;;;;22.80;71.98;103059.50;5209727;28;20117;-69
2022/07/08 09:09:51;;;;;;;5.43;1.67;;;;;;;22.85;72.85;103061.72;5219859;28;20026;-69
2022/07/08 09:12:25;;;;;;;4.47;1.50;;;;;;;23.02;66.94;103059.00;5220305;28;20434;-68
2022/07/08 09:15:00;;;;;;;5.05;1.70;;;;;;;23.05;69.79;103061.38;5215776;28;20026;-69
2022/07/08 09:17:42;;;;;;;7.22;1.98;;;;;;;23.28;70.50;103061.66;5218437;28;20407;-69
2022/07/08 09:20:14;;;;;;;7.53;1.98;;;;;;;23.09;63.44;103059.22;5221735;28;20033;-70
2022/07/08 09:22:45;;;;;;;5.70;1.93;;;;;;;23.24;63.70;103067.47;5220694;28;20033;-69
2022/07/08 09:25:16;;;;;;;7.00;1.70;;;;;;;23.18;64.22;103070.78;5218581;28;20087;-70
2022/07/08 09:27:48;;;;;;;8.30;1.80;;;;;;;23.28;69.26;103052.78;5219699;28;20037;-73
2022/07/08 09:30:27;;;;;;;11.17;1.90;;;;;;;23.59;64.45;103062.94;5220482;28;20029;-70
2022/07/08 09:33:00;;;;;;;6.88;2.13;;;;;;;23.45;62.96;103069.72;5216474;28;20034;-69
2022/07/08 09:35:33;;;;;;;7.28;2.13;;;;;;;23.47;65.00;103065.91;5212820;28;20038;-69
2022/07/08 09:38:09;;;;;;;5.93;2.28;;;;;;;23.50;65.75;103070.94;5211630;28;20026;-69
2022/07/08 09:40:53;;;;;;;7.80;1.67;;;;;;;23.70;65.46;103068.03;5221905;28;20040;-70
2022/07/08 09:43:26;;;;;;;7.07;1.98;;;;;;;23.46;62.69;103053.53;5220708;28;20022;-69
2022/07/08 09:46:05;;;;;;;;;;;;;;;24.42;63.77;103061.09;5215908;28;20050;-70
2022/07/08 09:48:36;;;;;;;6.00;2.13;;;;;;;23.75;62.74;103057.66;5218001;28;20301;-70
2022/07/08 09:51:08;;;;;;;4.97;1.43;;;;;;;23.66;63.86;103058.59;5212725;28;20033;-69
2022/07/08 09:53:40;;;;;;;8.27;2.07;;;;;;;23.65;65.13;103051.59;5214419;28;20026;-70
2022/07/08 09:56:11;;;;;;;7.78;2.03;;;;;;;23.54;67.66;103056.22;5213355;28;20292;-70
2022/07/08 10:15:38;;;;;;;7.78;1.77;;;;;;;24.07;62.82;103067.59;5487430;22;1056439;-68
2022/07/08 10:18:22;;;;;;;6.60;1.70;;;;;;;24.48;62.13;103068.47;5196208;28;20534;-68
2022/07/08 10:20:56;;;;;;;6.22;1.83;;;;;;;24.41;65.74;103072.84;5185654;28;20026;-68
2022/07/08 10:23:31;;;;;;;5.82;1.60;;;;;;;24.40;61.00;103063.13;5196908;28;20026;-69
2022/07/08 10:26:06;;;;;;;4.97;1.50;;;;;;;24.46;60.04;103067.81;5193668;28;20076;-68
2022/07/08 10:28:39;;;;;;;8.27;1.95;;;;;;;24.47;61.60;103069.50;5218045;23;20550;-69
2022/07/08 10:31:24;;;;;;;6.80;1.60;;;;;;;24.88;61.30;103065.91;5207737;28;20092;-69
2022/07/08 10:34:00;;;;;;;5.32;1.88;;;;;;;24.88;59.35;103061.38;5211935;28;20107;-69
2022/07/08 10:36:43;;;;;;;7.18;1.60;;;;;;;24.92;60.08;103057.34;5204813;28;20510;-69
2022/07/08 10:39:39;;;;;;;4.88;1.50;;;;;;;25.03;58.73;103058.00;5214655;28;20026;-70
2022/07/08 10:42:11;;;;;;;5.05;1.25;;;;;;;24.89;59.07;103057.72;5217215;28;20022;-70
2022/07/08 10:44:42;;;;;;;5.03;1.60;;;;;;;25.16;57.53;103056.47;5199569;28;20088;-70
2022/07/08 10:47:15;;;;;;;6.27;1.60;;;;;;;25.13;55.57;103058.66;5214227;28;20033;-69
2022/07/08 10:49:47;;;;;;;7.25;1.88;;;;;;;25.02;59.48;103046.44;5214258;28;20026;-70
2022/07/08 10:52:21;;;;;;;5.68;2.03;;;;;;;24.84;55.98;103046.63;5214214;28;20065;-70
2022/07/08 10:55:11;;;;;;;4.85;1.52;;;;;;;25.47;58.69;103045.78;5216862;28;20487;-70
2022/07/08 10:57:54;;;;;;;2.90;1.40;;;;;;;25.61;56.71;103054.06;5204035;28;20053;-70
2022/07/08 11:00:25;;;;;;;;;;;;;;;26.29;57.24;103045.25;5214445;28;20030;-71
2022/07/08 11:02:58;;;;;;;4.78;1.42;;;;;;;25.65;56.78;103048.19;5216088;28;19921;-72
2022/07/08 11:05:41;;;;;;;3.58;1.40;;;;;;;25.67;55.23;103066.81;5205930;28;20065;-71
2022/07/08 11:08:18;;;;;;;5.35;1.58;;;;;;;25.66;54.78;103055.22;5204329;28;20151;-71
2022/07/08 11:10:52;;;;;;;5.07;1.30;;;;;;;25.46;54.31;103056.69;5214726;28;20498;-70
2022/07/08 11:13:24;;;;;;;5.15;1.42;;;;;;;25.62;57.86;103050.41;5216686;28;20029;-71
2022/07/08 11:15:59;;;;;;;;;;;;;;;26.49;53.21;103047.47;5216722;28;20546;-71
2022/07/08 11:18:30;;;;;;;6.70;1.70;;;;;;;25.99;55.17;103046.16;5215921;28;19918;-71
2022/07/08 11:21:02;;;;;;;7.87;1.50;;;;;;;26.02;53.55;103048.47;5215420;28;20491;-71
2022/07/08 11:23:33;;;;;;;4.83;1.30;;;;;;;25.89;54.60;103043.72;5215277;28;20036;-71
2022/07/08 11:26:04;;;;;;;5.57;1.53;;;;;;;25.76;54.07;103038.91;5216406;28;20272;-72
2022/07/08 11:28:36;;;;;;;3.73;1.20;;;;;;;25.76;53.18;103048.78;5216063;28;20029;-72
2022/07/08 11:31:27;;;;;;;4.80;1.40;;;;;;;26.29;55.19;103037.19;5206267;28;20033;-71
2022/07/08 11:33:59;;;;;;;7.55;1.98;;;;;;;25.79;54.70;103043.09;5215465;28;20028;-71
2022/07/08 11:36:30;;;;;;;6.07;1.60;;;;;;;25.90;53.99;103042.69;5216877;28;20034;-71
2022/07/08 11:39:03;;;;;;;5.57;1.70;;;;;;;25.82;54.63;103048.13;5215772;28;20037;-71
2022/07/08 11:41:39;;;;;;;5.80;1.90;;;;;;;26.00;53.64;103047.84;5216235;28;20021;-71
2022/07/08 11:44:11;;;;;;;4.35;1.58;;;;;;;26.08;54.34;103053.16;5216186;28;20437;-71
2022/07/08 11:46:46;;;;;;;4.38;1.50;;;;;;;26.53;52.98;103043.38;5215885;28;20033;-71
2022/07/08 11:49:19;;;;;;;5.35;1.60;;;;;;;26.53;54.05;103046.91;5214376;28;20341;-71
2022/07/08 11:51:52;;;;;;;6.13;1.98;;;;;;;26.49;51.65;103050.16;5215338;28;20517;-71
2022/07/08 11:54:29;;;;;;;3.85;1.50;;;;;;;26.19;52.42;103048.19;5213652;28;20042;-71
2022/07/08 11:57:02;;;;;;;6.38;1.80;;;;;;;26.07;51.89;103041.56;5215318;28;20737;-71
2022/07/08 11:59:35;;;;;;;5.88;1.42;;;;;;;26.34;54.13;103047.41;5215352;28;20487;-71
2022/07/08 12:02:06;;;;;;;4.82;1.50;;;;;;;26.48;51.50;103045.78;5215851;28;20021;-71
2022/07/08 12:04:38;;;;;;;4.73;1.57;;;;;;;26.92;50.70;103041.28;5214807;28;20479;-71